Time;durP1;ratioP1;P1;durP2;ratioP2;P2;SDS_P1;SDS_P2;PMS_P1;PMS_P2;Temp;Humidity;BMP_temperature;BMP_pressure;BME280_temperature;BME280_humidity;BME280_pressure;Samples;Min_cycle;Max_cycle;Signal;HPM_P1;HPM_P2
2023/05/31 00:02:28;;;;;;;4.40;3.97;;;;;;;15.76;69.75;102420.75;5189374;28;20051;-87
2023/05/31 00:04:59;;;;;;;6.33;4.27;;;;;;;15.78;70.20;102424.16;5154641;28;20084;-87
2023/05/31 00:07:30;;;;;;;6.23;4.80;;;;;;;15.83;69.61;102419.47;5155965;28;20534;-87
2023/05/31 00:10:02;;;;;;;8.37;4.20;;;;;;;15.57;72.06;102450.81;5155498;28;20130;-86
2023/05/31 00:12:33;;;;;;;7.07;4.10;;;;;;;15.22;72.37;102402.53;5172385;28;20047;-86
2023/05/31 00:15:05;;;;;;;5.30;4.27;;;;;;;15.64;72.18;102452.19;5172277;28;20084;-87
2023/05/31 00:17:55;;;;;;;6.63;4.40;;;;;;;16.15;68.56;102456.41;5155793;28;20034;-87
2023/05/31 00:20:26;;;;;;;8.70;4.70;;;;;;;15.33;73.08;102427.47;5172798;28;20055;-87
2023/05/31 00:22:58;;;;;;;6.90;4.50;;;;;;;15.43;70.58;102386.44;5155259;28;20023;-87
2023/05/31 00:25:29;;;;;;;5.23;4.63;;;;;;;15.75;69.60;102411.09;5172665;28;20041;-86
2023/05/31 00:28:01;;;;;;;8.20;4.30;;;;;;;15.66;71.19;102428.31;5172588;28;20119;-87
2023/05/31 00:30:36;;;;;;;5.07;4.23;;;;;;;16.03;69.93;102451.81;5170472;28;20034;-87
2023/05/31 00:33:08;;;;;;;5.83;4.77;;;;;;;15.66;72.12;102449.44;5155017;28;20034;-87
2023/05/31 00:35:39;;;;;;;5.37;4.53;;;;;;;15.49;72.26;102424.84;5172307;28;20023;-87
2023/05/31 00:38:11;;;;;;;9.30;4.30;;;;;;;15.39;73.52;102450.91;5155065;28;20083;-87
2023/05/31 00:40:43;;;;;;;7.63;5.53;;;;;;;15.05;74.48;102398.16;5154664;28;20053;-87
2023/05/31 00:43:14;;;;;;;5.40;4.67;;;;;;;15.27;73.64;102422.53;5170884;28;20476;-87
2023/05/31 00:45:45;;;;;;;6.03;4.40;;;;;;;15.30;73.58;102419.72;5258894;28;20036;-86
2023/05/31 00:48:17;;;;;;;6.27;4.50;;;;;;;15.29;73.81;102437.34;5259679;28;20066;-87
2023/05/31 00:50:49;;;;;;;7.03;4.63;;;;;;;15.18;74.49;102415.97;5259681;28;20087;-87
2023/05/31 00:53:22;;;;;;;5.10;4.60;;;;;;;14.95;74.54;102387.28;5259390;28;20024;-85
2023/05/31 00:55:53;;;;;;;5.27;4.40;;;;;;;15.18;73.54;102406.28;5259124;28;20060;-85
2023/05/31 00:58:27;;;;;;;7.20;5.10;;;;;;;15.44;74.60;102456.78;5277126;28;20060;-85
2023/05/31 01:00:59;;;;;;;6.28;4.72;;;;;;;15.08;75.11;102426.19;5276153;28;20027;-85
2023/05/31 01:03:30;;;;;;;6.30;4.73;;;;;;;15.30;75.15;102454.91;5276955;28;20024;-86
2023/05/31 01:06:02;;;;;;;5.87;4.83;;;;;;;15.07;75.04;102408.63;5259604;28;20024;-87
2023/05/31 01:08:34;;;;;;;9.13;4.73;;;;;;;14.87;76.42;102413.22;5276941;28;20107;-87
2023/05/31 01:11:26;;;;;;;5.63;5.03;;;;;;;15.28;75.93;102440.06;5276789;28;20392;-87
2023/05/31 01:14:16;;;;;;;7.63;4.60;;;;;;;15.51;74.81;102456.44;5276429;28;20380;-87
2023/05/31 01:17:16;;;;;;;6.33;4.60;;;;;;;15.40;75.37;102449.09;5258276;28;20039;-85
2023/05/31 01:19:54;;;;;;;7.10;4.90;;;;;;;15.18;77.54;102464.34;5175529;28;21117;-86
2023/05/31 01:22:50;;;;;;;5.73;5.17;;;;;;;15.22;77.77;102463.22;5175040;28;20421;-85
2023/05/31 01:25:32;;;;;;;8.00;5.90;;;;;;;15.12;77.76;102460.25;5138250;28;20080;-86
2023/05/31 01:28:08;;;;;;;8.50;5.43;;;;;;;14.84;79.06;102421.28;5169904;28;20087;-85
2023/05/31 01:30:39;;;;;;;7.67;4.97;;;;;;;14.81;78.05;102410.88;5173788;28;20027;-85
2023/05/31 01:33:12;;;;;;;8.73;5.70;;;;;;;14.64;81.06;102410.81;5174755;28;20038;-86
2023/05/31 01:35:43;;;;;;;5.83;5.23;;;;;;;14.79;78.96;102402.16;5157167;28;20038;-84
2023/05/31 01:38:15;;;;;;;8.17;5.67;;;;;;;14.89;79.18;102429.78;5238070;28;20378;-85
2023/05/31 01:40:46;;;;;;;6.63;5.00;;;;;;;14.76;80.29;102414.59;5280084;28;20024;-84
2023/05/31 01:43:18;;;;;;;5.83;5.23;;;;;;;14.73;80.39;102414.75;5174965;28;20501;-86
2023/05/31 01:45:51;;;;;;;6.63;5.07;;;;;;;14.60;81.13;102411.06;5173659;28;20031;-86
2023/05/31 01:48:24;;;;;;;6.30;5.47;;;;;;;14.52;82.62;102427.28;5175439;28;20038;-86
2023/05/31 01:50:58;;;;;;;6.73;5.43;;;;;;;14.53;82.38;102413.16;5174305;28;20015;-85
2023/05/31 01:53:30;;;;;;;7.60;5.20;;;;;;;14.59;81.31;102409.38;5205446;28;20044;-86
2023/05/31 01:56:02;;;;;;;8.03;5.73;;;;;;;14.57;83.77;102449.00;5280876;28;20021;-86
2023/05/31 01:58:41;;;;;;;6.43;5.23;;;;;;;14.82;82.80;102449.53;5280327;28;20077;-86
2023/05/31 02:01:13;;;;;;;9.10;5.33;;;;;;;14.44;82.76;102398.66;5280487;28;20016;-85
2023/05/31 02:03:45;;;;;;;7.23;5.80;;;;;;;14.32;83.82;102386.13;5224189;28;20022;-85
2023/05/31 02:06:17;;;;;;;8.23;5.73;;;;;;;14.33;83.40;102379.94;5174905;28;20026;-86
2023/05/31 02:08:48;;;;;;;9.40;6.00;;;;;;;14.59;84.68;102438.38;5174552;28;20039;-89
2023/05/31 02:11:20;;;;;;;7.33;5.70;;;;;;;14.05;85.75;102376.88;5157613;28;20047;-89
2023/05/31 02:13:51;;;;;;;7.23;6.00;;;;;;;14.16;85.75;102381.63;5157513;28;20038;-87
2023/05/31 02:16:23;;;;;;;10.10;6.57;;;;;;;14.19;85.49;102378.84;5156740;28;20030;-87
2023/05/31 02:18:55;;;;;;;6.70;6.00;;;;;;;14.28;87.11;102410.00;5156510;28;20046;-88
2023/05/31 02:21:27;;;;;;;7.13;5.73;;;;;;;14.48;85.08;102409.91;5156831;28;20023;-89
2023/05/31 02:23:58;;;;;;;10.20;6.60;;;;;;;14.33;86.10;102401.84;5157132;28;20410;-89
2023/05/31 02:26:30;;;;;;;7.27;5.80;;;;;;;14.16;86.57;102379.00;5156499;28;20034;-88
2023/05/31 02:29:09;;;;;;;9.10;6.40;;;;;;;14.33;85.58;102379.94;5171218;28;20677;-88
2023/05/31 02:31:40;;;;;;;12.43;6.30;;;;;;;14.26;87.23;102411.84;5173970;28;20027;-88
2023/05/31 02:34:12;;;;;;;8.50;6.20;;;;;;;14.19;87.30;102399.06;5234826;28;20028;-88
2023/05/31 02:36:44;;;;;;;7.33;6.00;;;;;;;13.95;88.14;102381.78;5262448;28;20028;-88
2023/05/31 02:39:18;;;;;;;9.57;6.67;;;;;;;14.41;86.97;102414.66;5194952;28;20016;-89
2023/05/31 02:41:49;;;;;;;9.00;6.00;;;;;;;14.18;88.42;102413.16;5216942;28;20057;-89
2023/05/31 02:44:22;;;;;;;6.50;5.80;;;;;;;14.03;87.62;102373.50;5156114;28;20081;-90
2023/05/31 02:46:53;;;;;;;6.80;5.83;;;;;;;14.07;88.09;102387.38;5157390;28;20071;-83
2023/05/31 02:49:36;;;;;;;10.77;6.80;;;;;;;14.13;87.56;102372.09;5156236;28;20053;-86
2023/05/31 02:52:08;;;;;;;8.83;6.30;;;;;;;13.89;89.13;102380.28;5166032;28;20023;-85
2023/05/31 02:54:39;;;;;;;9.27;6.27;;;;;;;13.82;89.16;102381.53;5172257;28;20025;-87
2023/05/31 02:57:11;;;;;;;7.17;6.33;;;;;;;14.09;89.90;102430.28;5155884;28;20031;-86
2023/05/31 02:59:46;;;;;;;10.00;6.77;;;;;;;14.20;89.53;102413.94;5154986;28;20050;-86
2023/05/31 03:02:18;;;;;;;9.77;7.30;;;;;;;13.94;89.88;102395.88;5172583;28;20030;-85
2023/05/31 03:04:50;;;;;;;7.70;6.60;;;;;;;13.92;89.98;102395.09;5167432;28;20067;-85
2023/05/31 03:07:21;;;;;;;10.63;7.03;;;;;;;13.91;90.56;102403.94;5137003;28;20039;-87
2023/05/31 03:09:53;;;;;;;9.20;6.40;;;;;;;13.72;91.62;102386.38;5155451;28;20076;-85
2023/05/31 03:12:24;;;;;;;11.43;6.60;;;;;;;14.01;89.61;102392.03;5152214;28;20039;-86
2023/05/31 03:14:56;;;;;;;12.20;6.90;;;;;;;13.90;90.60;102394.31;5152059;28;20039;-86
2023/05/31 03:17:27;;;;;;;8.50;6.80;;;;;;;13.79;91.96;102418.53;5153723;28;20034;-86
2023/05/31 03:19:59;;;;;;;9.87;7.40;;;;;;;13.90;91.55;102418.03;5152153;28;20015;-87
2023/05/31 03:22:30;;;;;;;13.17;7.30;;;;;;;13.87;90.47;102390.06;5226784;28;20028;-88
2023/05/31 03:25:03;;;;;;;8.70;6.87;;;;;;;13.48;93.19;102394.50;5247310;28;20028;-88
2023/05/31 03:27:35;;;;;;;8.40;7.50;;;;;;;13.45;93.48;102384.13;5152362;28;20077;-86
2023/05/31 03:30:07;;;;;;;8.27;7.47;;;;;;;13.67;95.00;102420.84;5153759;28;20054;-87
2023/05/31 03:32:38;;;;;;;9.20;7.53;;;;;;;13.61;93.98;102394.81;5154501;28;20030;-88
2023/05/31 03:35:09;;;;;;;9.13;7.20;;;;;;;13.77;93.49;102417.78;5153019;28;20023;-86
2023/05/31 03:37:41;;;;;;;9.13;7.30;;;;;;;13.80;93.60;102428.16;5154064;29;20028;-87
2023/05/31 03:40:12;;;;;;;11.23;7.90;;;;;;;13.67;93.58;102394.53;5151713;28;20077;-86
2023/05/31 03:42:43;;;;;;;7.87;7.07;;;;;;;13.63;93.85;102384.22;5152070;28;20039;-86
2023/05/31 03:45:16;;;;;;;9.90;7.57;;;;;;;13.85;93.27;102409.50;5153692;28;20078;-86
2023/05/31 03:47:47;;;;;;;7.77;6.93;;;;;;;13.42;94.81;102389.56;5152687;28;20498;-86
2023/05/31 03:50:19;;;;;;;11.40;8.23;;;;;;;13.72;94.30;102407.44;5154493;28;20031;-86
2023/05/31 03:52:50;;;;;;;9.27;7.87;;;;;;;13.79;93.37;102398.34;5152466;28;20020;-86
2023/05/31 03:55:21;;;;;;;9.20;7.57;;;;;;;13.47;95.02;102384.06;5155036;29;20028;-86
2023/05/31 03:57:55;;;;;;;9.97;8.10;;;;;;;13.69;95.03;102402.34;5155159;29;20391;-87
2023/05/31 04:00:36;;;;;;;10.57;7.97;;;;;;;13.83;94.07;102403.44;5170319;28;20483;-87
2023/05/31 04:03:23;;;;;;;9.20;7.53;;;;;;;14.01;91.44;102402.56;5155860;29;20081;-87
2023/05/31 04:05:54;;;;;;;10.70;8.67;;;;;;;13.52;94.94;102396.13;5153576;29;20081;-87
2023/05/31 04:08:26;;;;;;;25.10;9.77;;;;;;;13.69;96.31;102422.53;5165116;28;20015;-87
2023/05/31 04:10:57;;;;;;;11.47;7.53;;;;;;;13.62;97.89;102420.22;5181807;28;20030;-86
2023/05/31 04:13:28;;;;;;;10.90;8.20;;;;;;;13.57;96.89;102397.66;5181577;28;20086;-87
2023/05/31 04:16:00;;;;;;;13.27;8.20;;;;;;;13.67;95.33;102380.50;5188681;28;20038;-86
2023/05/31 04:18:31;;;;;;;13.20;7.70;;;;;;;13.72;95.55;102404.81;5179135;28;20372;-87
2023/05/31 04:21:05;;;;;;;13.10;9.20;;;;;;;13.86;96.80;102416.50;5174015;28;20037;-88
2023/05/31 04:23:36;;;;;;;9.35;7.93;;;;;;;13.73;96.06;102405.69;5158505;28;20522;-89
2023/05/31 04:26:08;;;;;;;11.97;9.77;;;;;;;13.65;96.43;102390.25;5172768;28;20026;-85
2023/05/31 04:28:41;;;;;;;9.83;8.80;;;;;;;13.66;97.56;102387.56;5172080;28;20559;-85
2023/05/31 04:31:12;;;;;;;13.17;9.03;;;;;;;13.93;96.25;102419.66;5172309;28;20018;-88
2023/05/31 04:33:44;;;;;;;12.53;9.13;;;;;;;13.61;98.11;102394.81;5154656;28;20281;-87
2023/05/31 04:36:15;;;;;;;14.93;10.00;;;;;;;13.93;97.52;102431.03;5172565;28;20105;-87
2023/05/31 04:38:47;;;;;;;13.00;8.43;;;;;;;14.01;96.55;102426.28;5171728;28;20039;-85
2023/05/31 04:41:18;;;;;;;13.27;9.80;;;;;;;13.74;97.25;102394.22;5172550;28;20468;-85
2023/05/31 04:43:50;;;;;;;12.27;10.43;;;;;;;13.79;99.04;102423.81;5171934;28;20035;-87
2023/05/31 04:46:22;;;;;;;11.80;9.93;;;;;;;13.67;99.33;102383.13;5171945;28;20029;-87
2023/05/31 04:48:55;;;;;;;16.67;11.03;;;;;;;13.68;100.00;102426.97;5172061;28;20122;-89
2023/05/31 04:51:59;;;;;;;11.70;10.50;;;;;;;14.20;97.64;102440.28;5155452;28;20111;-88
2023/05/31 04:54:30;;;;;;;11.93;10.27;;;;;;;13.82;100.00;102422.81;5172362;28;20068;-88
2023/05/31 04:57:02;;;;;;;13.10;10.87;;;;;;;13.73;100.00;102409.19;5172356;28;20034;-88
2023/05/31 04:59:34;;;;;;;13.50;10.30;;;;;;;13.86;100.00;102419.94;5170568;28;20034;-87
2023/05/31 05:02:06;;;;;;;12.93;11.50;;;;;;;13.82;100.00;102413.16;5155420;28;20050;-87
2023/05/31 05:04:38;;;;;;;12.90;10.90;;;;;;;13.73;100.00;102411.81;5155444;28;20031;-88
2023/05/31 05:07:09;;;;;;;14.77;11.73;;;;;;;13.58;100.00;102379.16;5172567;28;20023;-88
2023/05/31 05:09:40;;;;;;;15.27;10.90;;;;;;;13.83;100.00;102404.31;5137641;28;20024;-88
2023/05/31 05:12:12;;;;;;;14.90;11.80;;;;;;;14.03;100.00;102421.75;5134679;28;20391;-88
2023/05/31 05:14:43;;;;;;;14.67;11.20;;;;;;;13.89;100.00;102397.91;5151041;29;20016;-87
2023/05/31 05:17:14;;;;;;;13.33;10.90;;;;;;;14.05;100.00;102407.66;5134475;28;20662;-88
2023/05/31 05:19:46;;;;;;;14.07;12.37;;;;;;;13.97;98.88;102372.03;5135862;28;20084;-87
2023/05/31 05:22:20;;;;;;;14.33;12.53;;;;;;;14.31;100.00;102432.72;5141518;28;20146;-86
2023/05/31 05:24:52;;;;;;;13.52;11.18;;;;;;;14.29;100.00;102424.03;5151593;29;20027;-87
2023/05/31 05:27:28;;;;;;;17.13;12.73;;;;;;;14.27;99.92;102405.66;5134368;29;20032;-87
2023/05/31 05:29:59;;;;;;;13.97;12.47;;;;;;;14.21;99.86;102420.91;5133838;29;20034;-86
2023/05/31 05:32:31;;;;;;;15.87;13.10;;;;;;;14.08;100.00;102394.34;5167254;28;20035;-87
2023/05/31 05:35:02;;;;;;;15.33;12.73;;;;;;;14.32;99.47;102415.97;5170905;28;20022;-87
2023/05/31 05:37:35;;;;;;;16.73;13.67;;;;;;;14.38;99.00;102428.81;5171437;28;20029;-87
2023/05/31 05:40:07;;;;;;;20.57;13.20;;;;;;;14.10;100.00;102395.13;5154009;28;20027;-87
2023/05/31 05:42:38;;;;;;;15.67;12.47;;;;;;;14.11;100.00;102396.81;5154526;28;20019;-87
2023/05/31 05:45:11;;;;;;;16.67;13.17;;;;;;;14.30;99.21;102407.28;5170146;28;20088;-87
2023/05/31 05:47:44;;;;;;;17.97;13.57;;;;;;;14.24;99.20;102403.16;5154301;28;20144;-87
2023/05/31 05:50:16;;;;;;;16.40;13.53;;;;;;;14.44;100.00;102421.53;5170375;28;20072;-87
2023/05/31 05:52:48;;;;;;;17.37;14.20;;;;;;;14.45;99.38;102413.53;5153174;28;20872;-86
2023/05/31 05:55:20;;;;;;;16.70;13.97;;;;;;;14.48;98.39;102409.91;5153402;28;20231;-85
2023/05/31 05:57:52;;;;;;;17.30;14.23;;;;;;;14.58;98.45;102411.13;5169690;28;20035;-84
2023/05/31 06:00:24;;;;;;;15.30;13.77;;;;;;;14.73;98.71;102414.75;5170650;28;20068;-85
2023/05/31 06:02:55;;;;;;;19.13;15.07;;;;;;;14.73;97.78;102414.75;5154315;28;20030;-84
2023/05/31 06:05:34;;;;;;;17.67;14.57;;;;;;;15.07;97.75;102437.66;5252265;28;20421;-84
2023/05/31 06:08:05;;;;;;;18.10;14.13;;;;;;;14.93;97.04;102435.75;5156736;28;20037;-85
2023/05/31 06:10:40;;;;;;;19.37;14.00;;;;;;;14.78;97.45;102395.19;5171629;28;20102;-85
2023/05/31 06:13:12;;;;;;;18.33;13.77;;;;;;;14.94;97.42;102414.56;5161316;28;20715;-84
2023/05/31 06:15:43;;;;;;;17.07;13.87;;;;;;;14.87;95.83;102389.47;5151517;28;20027;-85
2023/05/31 06:18:15;;;;;;;18.50;14.13;;;;;;;15.16;96.09;102438.97;5168217;28;20897;-87
2023/05/31 06:20:46;;;;;;;20.93;14.30;;;;;;;15.06;96.12;102402.50;5170509;28;20015;-85
2023/05/31 06:23:17;;;;;;;19.50;14.73;;;;;;;15.08;95.46;102402.44;5157013;28;20881;-83
2023/05/31 06:25:49;;;;;;;18.17;13.17;;;;;;;15.15;94.58;102403.78;5174339;28;20084;-83
2023/05/31 06:28:20;;;;;;;15.27;13.37;;;;;;;15.18;93.89;102387.81;5172340;28;20122;-83
2023/05/31 06:30:51;;;;;;;14.93;13.30;;;;;;;15.55;94.10;102442.16;5156597;28;20092;-84
2023/05/31 06:33:23;;;;;;;15.70;12.23;;;;;;;15.40;94.74;102413.00;5156149;28;20022;-83
2023/05/31 06:35:55;;;;;;;18.40;14.13;;;;;;;15.57;93.33;102413.84;5173645;28;20030;-84
2023/05/31 06:38:27;;;;;;;16.47;13.33;;;;;;;15.62;92.59;102413.59;5173686;28;20502;-82
2023/05/31 06:40:58;;;;;;;20.50;13.20;;;;;;;15.65;91.95;102401.06;5172580;28;20022;-83
2023/05/31 06:43:30;;;;;;;18.73;14.17;;;;;;;15.81;90.76;102413.41;5171946;28;20034;-85
2023/05/31 06:46:01;;;;;;;20.90;13.87;;;;;;;16.12;89.61;102408.16;5172958;28;20062;-84
2023/05/31 06:48:32;;;;;;;18.73;13.10;;;;;;;16.30;88.70;102419.44;5151561;28;20023;-83
2023/05/31 06:51:05;;;;;;;16.93;13.87;;;;;;;16.39;88.17;102418.06;5157529;28;20425;-84
2023/05/31 06:53:36;;;;;;;15.53;13.67;;;;;;;16.62;85.88;102419.28;5172538;28;20031;-87
2023/05/31 06:56:08;;;;;;;18.17;13.77;;;;;;;16.74;84.31;102403.63;5155913;28;20027;-86
2023/05/31 06:58:41;;;;;;;20.07;14.03;;;;;;;17.04;82.05;102416.75;5154536;28;20131;-86
2023/05/31 07:01:12;;;;;;;14.77;13.27;;;;;;;17.31;81.40;102401.91;5156463;28;20506;-85
2023/05/31 07:03:43;;;;;;;21.47;13.03;;;;;;;17.51;77.79;102420.94;5155378;28;20026;-85
2023/05/31 07:06:15;;;;;;;14.57;11.87;;;;;;;17.78;76.32;102417.44;5172891;28;20031;-86
2023/05/31 07:08:46;;;;;;;15.60;12.47;;;;;;;18.14;75.23;102431.03;5155366;28;20042;-86
2023/05/31 07:11:18;;;;;;;21.57;11.97;;;;;;;18.54;72.87;102410.69;5172938;28;20058;-86
2023/05/31 07:14:04;;;;;;;16.00;12.90;;;;;;;19.44;70.84;102438.91;5154710;28;20052;-86
2023/05/31 07:16:36;;;;;;;17.43;12.87;;;;;;;19.42;66.27;102389.50;5172706;28;20680;-86
2023/05/31 07:19:07;;;;;;;18.27;12.50;;;;;;;19.90;64.14;102419.66;5173098;28;20038;-88
2023/05/31 07:21:38;;;;;;;17.00;12.43;;;;;;;20.59;60.23;102419.84;5168408;28;20173;-87
2023/05/31 07:24:10;;;;;;;15.93;12.67;;;;;;;21.10;57.77;102428.34;5155582;28;20109;-87
2023/05/31 07:26:41;;;;;;;15.07;10.20;;;;;;;21.35;55.53;102410.34;5171859;28;20088;-86
2023/05/31 07:29:13;;;;;;;17.33;11.17;;;;;;;22.01;53.46;102395.19;5155326;28;20499;-87
2023/05/31 07:31:44;;;;;;;16.50;10.90;;;;;;;22.72;52.25;102424.84;5156252;28;20482;-90
2023/05/31 07:34:15;;;;;;;18.67;10.50;;;;;;;22.88;50.17;102424.34;5158294;28;20031;-91
2023/05/31 07:36:47;;;;;;;18.90;11.63;;;;;;;23.42;48.70;102394.63;5174221;28;20080;-92
2023/05/31 07:39:21;;;;;;;13.88;10.68;;;;;;;23.88;46.13;102404.75;5154964;28;20368;-86
2023/05/31 07:41:53;;;;;;;16.20;11.40;;;;;;;24.25;44.73;102421.91;5155113;28;20080;-86
2023/05/31 07:44:24;;;;;;;13.20;9.43;;;;;;;24.63;44.05;102408.53;5155557;28;20105;-85
2023/05/31 07:47:02;;;;;;;10.77;9.27;;;;;;;25.37;44.02;102415.75;5172400;28;20034;-86
2023/05/31 07:49:34;;;;;;;13.25;9.80;;;;;;;25.28;41.85;102389.00;5172320;28;20038;-86
2023/05/31 07:52:05;;;;;;;14.15;10.38;;;;;;;25.82;41.24;102390.81;5155748;28;20034;-85
2023/05/31 07:54:37;;;;;;;17.50;10.07;;;;;;;26.13;39.89;102403.75;5172445;28;20054;-85
2023/05/31 07:57:08;;;;;;;15.13;10.32;;;;;;;26.40;39.12;102411.84;5173060;28;20153;-86
2023/05/31 07:59:40;;;;;;;11.63;9.77;;;;;;;27.06;38.03;102430.94;5171971;28;20031;-84
2023/05/31 08:02:11;;;;;;;14.85;10.00;;;;;;;27.52;36.94;102424.28;5171847;28;20034;-84
2023/05/31 08:04:43;;;;;;;14.05;10.35;;;;;;;27.54;36.37;102389.97;5171296;28;20073;-84
2023/05/31 08:07:15;;;;;;;16.77;10.80;;;;;;;27.73;36.88;102395.22;5172951;28;20026;-84
2023/05/31 08:09:47;;;;;;;11.57;8.70;;;;;;;28.19;35.92;102391.91;5172124;28;20019;-84
2023/05/31 08:12:33;;;;;;;14.85;9.63;;;;;;;28.88;37.09;102370.78;5172541;28;20466;-85
2023/05/31 08:15:05;;;;;;;14.13;8.70;;;;;;;28.27;35.11;102373.06;5172996;28;20030;-86
2023/05/31 08:17:37;;;;;;;17.33;9.85;;;;;;;28.91;34.20;102391.97;5154785;28;20031;-86
2023/05/31 08:20:11;;;;;;;13.13;9.85;;;;;;;29.36;33.34;102402.13;5156188;28;20478;-87
2023/05/31 08:22:53;;;;;;;14.13;9.23;;;;;;;29.93;34.42;102409.94;5155799;28;20027;-88
2023/05/31 08:25:32;;;;;;;13.40;8.90;;;;;;;29.74;34.06;102403.22;5172945;28;20039;-88
2023/05/31 08:28:10;;;;;;;12.77;9.27;;;;;;;29.95;33.16;102389.00;5173393;28;20030;-88
2023/05/31 08:30:41;;;;;;;10.20;8.30;;;;;;;29.71;31.97;102383.66;5173312;28;20111;-87
2023/05/31 08:33:13;;;;;;;15.50;9.00;;;;;;;30.32;32.07;102405.31;5172860;28;20039;-87
2023/05/31 08:36:04;;;;;;;17.20;9.55;;;;;;;31.52;32.52;102412.28;5174846;28;20561;-89
2023/05/31 08:38:54;;;;;;;14.13;9.27;;;;;;;31.73;31.82;102380.75;5156471;28;20054;-88
2023/05/31 08:42:09;;;;;;;14.63;9.23;;;;;;;31.86;32.25;102415.22;5157522;28;20023;-86
2023/05/31 08:44:42;;;;;;;13.02;8.85;;;;;;;30.91;30.35;102379.22;5170844;28;20038;-87
2023/05/31 08:47:56;;;;;;;10.25;8.05;;;;;;;32.58;29.81;102391.69;5175595;28;20061;-88
2023/05/31 08:50:31;;;;;;;13.60;8.80;;;;;;;31.81;28.21;102398.75;5115515;28;20036;-85
2023/05/31 08:53:04;;;;;;;11.40;8.50;;;;;;;31.31;29.45;102382.50;5134276;28;20121;-86
2023/05/31 08:55:37;;;;;;;15.40;9.00;;;;;;;31.85;28.12;102364.81;5179603;28;20042;-85
2023/05/31 08:58:10;;;;;;;12.85;7.18;;;;;;;32.55;27.83;102392.94;5182272;28;20033;-85
2023/05/31 09:00:42;;;;;;;16.73;7.88;;;;;;;32.22;26.97;102380.03;5162694;28;20594;-85
2023/05/31 09:03:13;;;;;;;11.25;6.93;;;;;;;32.73;28.16;102375.22;5177528;28;20030;-85
2023/05/31 09:05:45;;;;;;;13.55;7.70;;;;;;;32.92;27.48;102367.34;5172963;28;20027;-88
2023/05/31 09:08:16;;;;;;;12.07;7.95;;;;;;;31.97;27.38;102380.50;5155091;28;20027;-88
2023/05/31 09:10:47;;;;;;;10.55;7.80;;;;;;;32.39;26.94;102360.72;5148994;28;20061;-87
2023/05/31 09:13:19;;;;;;;12.93;7.00;;;;;;;33.39;26.23;102394.53;5167578;28;20498;-87
2023/05/31 09:15:52;;;;;;;12.98;7.88;;;;;;;33.27;25.86;102358.22;5149015;28;20122;-87
2023/05/31 09:18:25;;;;;;;13.15;7.00;;;;;;;33.44;25.96;102364.06;5154045;28;20101;-87
2023/05/31 09:20:58;;;;;;;16.02;8.27;;;;;;;34.07;25.30;102377.31;5159616;28;20029;-87
2023/05/31 09:23:29;;;;;;;23.13;8.20;;;;;;;33.95;25.85;102379.88;5160877;28;20157;-86
2023/05/31 09:26:01;;;;;;;14.23;7.68;;;;;;;33.99;25.05;102365.63;5152287;28;20110;-87
2023/05/31 09:28:33;;;;;;;12.80;6.72;;;;;;;34.32;24.65;102360.31;5151053;28;20031;-87
2023/05/31 09:31:06;;;;;;;11.13;6.40;;;;;;;35.38;23.23;102359.00;5160824;28;20087;-86
2023/05/31 09:33:41;;;;;;;13.52;5.70;;;;;;;35.12;24.08;102386.19;5171450;28;20106;-86
2023/05/31 09:36:23;;;;;;;16.58;6.50;;;;;;;35.19;25.00;102366.25;5154121;28;20179;-87
2023/05/31 09:39:08;;;;;;;10.95;6.28;;;;;;;34.80;23.84;102355.44;5174245;28;20436;-87
2023/05/31 09:41:39;;;;;;;13.25;6.43;;;;;;;34.49;23.57;102347.88;5164289;28;20031;-86
2023/05/31 09:44:11;;;;;;;15.23;6.93;;;;;;;34.63;23.83;102364.13;5158382;28;20567;-90
2023/05/31 09:46:46;;;;;;;13.90;5.27;;;;;;;35.54;23.34;102365.75;5157408;28;20030;-89
2023/05/31 09:49:19;;;;;;;15.13;6.13;;;;;;;36.09;22.52;102341.47;5175013;28;20119;-88
2023/05/31 09:51:52;;;;;;;10.15;6.28;;;;;;;35.61;23.06;102346.59;5175399;28;20031;-89
2023/05/31 09:54:25;;;;;;;10.80;5.80;;;;;;;36.08;22.68;102354.25;5177425;28;20042;-90
2023/05/31 09:56:56;;;;;;;15.05;5.88;;;;;;;35.95;22.17;102313.56;5174800;28;20472;-87
2023/05/31 09:59:31;;;;;;;16.07;5.70;;;;;;;35.75;22.96;102330.13;5181103;28;20030;-85
2023/05/31 10:02:03;;;;;;;13.43;5.90;;;;;;;35.83;21.91;102327.13;5175098;28;20022;-86
2023/05/31 10:04:35;;;;;;;11.00;4.90;;;;;;;35.66;22.29;102352.19;5156148;28;20030;-87
2023/05/31 10:07:08;;;;;;;9.73;4.43;;;;;;;36.89;21.91;102365.16;5157319;28;20026;-89
2023/05/31 10:09:39;;;;;;;8.90;4.80;;;;;;;36.30;21.42;102337.44;5156256;28;20175;-87
2023/05/31 10:12:13;;;;;;;4.40;3.50;;;;;;;36.72;21.21;102360.34;5157387;28;20074;-89
2023/05/31 10:14:51;;;;;;;8.50;4.53;;;;;;;36.40;21.36;102325.97;5174706;28;20458;-86
2023/05/31 10:17:23;;;;;;;7.43;4.28;;;;;;;35.00;22.25;102326.19;5173900;28;20041;-87
2023/05/31 10:20:00;;;;;;;9.10;4.37;;;;;;;35.18;22.26;102323.75;5157048;28;20105;-88
2023/05/31 10:22:41;;;;;;;9.02;4.00;;;;;;;34.70;23.53;102321.38;5173959;28;20019;-89
2023/05/31 10:25:57;;;;;;;6.25;3.47;;;;;;;34.99;23.45;102334.59;5157138;28;20030;-88
2023/05/31 10:28:37;;;;;;;7.90;4.50;;;;;;;33.74;23.79;102301.13;5172784;28;20549;-89
2023/05/31 10:31:16;;;;;;;10.00;4.72;;;;;;;34.37;23.54;102345.00;5258567;28;20023;-91
2023/05/31 10:33:53;;;;;;;9.05;5.32;;;;;;;33.62;24.26;102321.84;5159170;28;20027;-91
2023/05/31 10:36:24;;;;;;;6.82;3.83;;;;;;;33.07;24.11;102289.31;5175155;28;20031;-88
2023/05/31 10:39:04;;;;;;;9.65;3.80;;;;;;;33.16;23.97;102310.81;5156521;28;20497;-88
2023/05/31 10:41:49;;;;;;;11.27;4.55;;;;;;;33.19;24.69;102270.53;5173283;28;20022;-88
2023/05/31 10:44:31;;;;;;;9.45;4.25;;;;;;;32.99;24.52;102253.41;5172668;28;20026;-88
2023/05/31 10:47:09;;;;;;;8.98;3.00;;;;;;;32.76;24.74;102288.06;5173855;28;20109;-89
2023/05/31 10:49:43;;;;;;;6.18;3.15;;;;;;;32.92;23.83;102296.81;5256640;28;20027;-87
2023/05/31 10:52:16;;;;;;;8.30;3.22;;;;;;;32.72;24.57;102303.91;5177909;28;20033;-92
2023/05/31 10:55:22;;;;;;;8.82;3.67;;;;;;;33.43;24.16;102299.91;5182980;28;20033;-94
2023/05/31 11:01:30;;;;;;;9.50;4.13;;;;;;;33.24;23.91;102269.06;5199944;28;20026;-90
2023/05/31 11:04:25;;;;;;;6.85;3.63;;;;;;;33.35;24.49;102294.72;5181205;28;20028;-89
2023/05/31 11:07:33;;;;;;;8.57;4.15;;;;;;;33.46;23.91;102306.81;5199024;28;20019;-89
2023/05/31 11:10:10;;;;;;;6.88;3.22;;;;;;;32.83;24.08;102294.28;5188590;28;20039;-88
2023/05/31 11:12:41;;;;;;;10.48;3.78;;;;;;;32.83;23.43;102252.78;5173695;28;20053;-92
2023/05/31 11:15:14;;;;;;;13.07;3.53;;;;;;;32.65;24.25;102251.53;5171953;28;20479;-94
2023/05/31 11:17:53;;;;;;;8.35;2.95;;;;;;;33.06;24.70;102263.19;5165788;28;20022;-94
2023/05/31 11:20:28;;;;;;;9.63;4.25;;;;;;;33.03;23.92;102250.06;5166647;28;20129;-93
2023/05/31 11:23:34;;;;;;;7.57;3.38;;;;;;;33.71;23.58;102301.56;5160543;28;20026;-94
2023/05/31 11:26:14;;;;;;;9.18;3.25;;;;;;;33.49;23.59;102263.78;5160584;28;20031;-94
2023/05/31 11:28:57;;;;;;;17.50;3.60;;;;;;;33.24;24.09;102260.91;5165295;28;20056;-93
2023/05/31 11:31:58;;;;;;;6.50;3.20;;;;;;;34.03;23.44;102296.22;5163043;28;20026;-94
2023/05/31 11:34:33;;;;;;;8.25;2.67;;;;;;;32.97;23.56;102269.91;5157634;28;20835;-91
2023/05/31 11:37:04;;;;;;;6.32;2.90;;;;;;;33.28;22.92;102273.88;5199824;28;20030;-87
2023/05/31 11:39:36;;;;;;;9.93;4.05;;;;;;;32.95;23.82;102247.56;5215720;28;20035;-88
2023/05/31 11:42:07;;;;;;;9.52;3.00;;;;;;;33.10;24.56;102224.78;5204986;28;20007;-85
2023/05/31 11:44:45;;;;;;;11.63;3.72;;;;;;;32.84;24.17;102246.31;5202712;28;20048;-90
2023/05/31 11:47:18;;;;;;;6.32;2.80;;;;;;;33.10;23.97;102281.75;5228449;28;20039;-91
2023/05/31 11:49:50;;;;;;;6.75;3.88;;;;;;;33.03;24.57;102260.91;5222649;28;20034;-90
2023/05/31 11:52:23;;;;;;;8.40;3.35;;;;;;;33.07;24.15;102274.91;5217388;28;20040;-91
2023/05/31 11:55:04;;;;;;;10.23;3.72;;;;;;;33.37;23.92;102282.63;5218010;28;20038;-91